sensor_id;sensor_type;location;lat;lon;timestamp;temperature;humidity
15099;DHT22;33900;53.640;9.942;2024-03-23T00:55:50;10.50;92.20
15099;DHT22;33900;53.640;9.942;2024-03-23T00:58:16;10.50;92.20
15099;DHT22;33900;53.640;9.942;2024-03-23T01:00:42;10.50;92.20
15099;DHT22;33900;53.640;9.942;2024-03-23T01:03:07;10.50;92.20
15099;DHT22;33900;53.640;9.942;2024-03-23T01:05:33;10.50;92.20
15099;DHT22;33900;53.640;9.942;2024-03-23T01:07:58;10.50;92.20
15099;DHT22;33900;53.640;9.942;2024-03-23T01:10:24;10.40;92.20
15099;DHT22;33900;53.640;9.942;2024-03-23T01:12:49;10.40;92.20
15099;DHT22;33900;53.640;9.942;2024-03-23T01:15:15;10.40;92.20
15099;DHT22;33900;53.640;9.942;2024-03-23T01:17:41;10.40;92.20
15099;DHT22;33900;53.640;9.942;2024-03-23T01:20:06;10.40;92.30
15099;DHT22;33900;53.640;9.942;2024-03-23T01:22:32;10.40;92.30
15099;DHT22;33900;53.640;9.942;2024-03-23T01:24:58;10.50;92.30
15099;DHT22;33900;53.640;9.942;2024-03-23T01:27:24;10.40;92.30
15099;DHT22;33900;53.640;9.942;2024-03-23T01:29:50;10.40;92.30
15099;DHT22;33900;53.640;9.942;2024-03-23T01:32:18;10.40;92.30
15099;DHT22;33900;53.640;9.942;2024-03-23T01:34:44;10.30;92.30
15099;DHT22;33900;53.640;9.942;2024-03-23T01:37:09;10.30;92.30
15099;DHT22;33900;53.640;9.942;2024-03-23T01:39:35;10.30;92.30
15099;DHT22;33900;53.640;9.942;2024-03-23T01:42:01;10.30;92.30
15099;DHT22;33900;53.640;9.942;2024-03-23T01:44:26;10.30;92.30
15099;DHT22;33900;53.640;9.942;2024-03-23T01:46:52;10.30;92.40
15099;DHT22;33900;53.640;9.942;2024-03-23T01:49:18;10.30;92.40
15099;DHT22;33900;53.640;9.942;2024-03-23T01:51:43;10.30;92.40
15099;DHT22;33900;53.640;9.942;2024-03-23T01:54:10;10.30;92.40
15099;DHT22;33900;53.640;9.942;2024-03-23T01:56:35;10.30;92.40
15099;DHT22;33900;53.640;9.942;2024-03-23T01:59:04;10.20;92.30
15099;DHT22;33900;53.640;9.942;2024-03-23T02:01:33;10.20;92.30
15099;DHT22;33900;53.640;9.942;2024-03-23T02:04:01;10.20;92.30
15099;DHT22;33900;53.640;9.942;2024-03-23T02:06:27;10.20;92.40
15099;DHT22;33900;53.640;9.942;2024-03-23T02:08:53;10.20;92.40
15099;DHT22;33900;53.640;9.942;2024-03-23T02:11:18;10.20;92.40
15099;DHT22;33900;53.640;9.942;2024-03-23T02:13:44;10.20;92.40
15099;DHT22;33900;53.640;9.942;2024-03-23T02:16:10;10.20;92.40
15099;DHT22;33900;53.640;9.942;2024-03-23T02:18:35;10.20;92.40
15099;DHT22;33900;53.640;9.942;2024-03-23T02:21:01;10.10;92.40
15099;DHT22;33900;53.640;9.942;2024-03-23T02:23:27;10.10;92.40
15099;DHT22;33900;53.640;9.942;2024-03-23T02:25:52;10.10;92.40
15099;DHT22;33900;53.640;9.942;2024-03-23T02:28:21;10.10;92.40
15099;DHT22;33900;53.640;9.942;2024-03-23T02:30:50;10.10;92.40
15099;DHT22;33900;53.640;9.942;2024-03-23T02:33:16;10.10;92.40
15099;DHT22;33900;53.640;9.942;2024-03-23T02:35:42;10.10;92.50
15099;DHT22;33900;53.640;9.942;2024-03-23T02:38:07;10.00;92.40
15099;DHT22;33900;53.640;9.942;2024-03-23T02:40:33;10.00;92.40
15099;DHT22;33900;53.640;9.942;2024-03-23T02:42:59;10.00;92.40
15099;DHT22;33900;53.640;9.942;2024-03-23T02:45:24;10.00;92.50
15099;DHT22;33900;53.640;9.942;2024-03-23T02:47:50;10.00;92.50
15099;DHT22;33900;53.640;9.942;2024-03-23T02:50:18;9.90;92.50
15099;DHT22;33900;53.640;9.942;2024-03-23T02:52:44;9.90;92.50
15099;DHT22;33900;53.640;9.942;2024-03-23T02:55:09;9.90;92.50
15099;DHT22;33900;53.640;9.942;2024-03-23T02:57:35;9.90;92.50
15099;DHT22;33900;53.640;9.942;2024-03-23T03:00:00;9.90;92.50
15099;DHT22;33900;53.640;9.942;2024-03-23T03:02:26;9.90;92.50
15099;DHT22;33900;53.640;9.942;2024-03-23T03:04:51;9.90;92.50
15099;DHT22;33900;53.640;9.942;2024-03-23T03:07:17;9.90;92.60
15099;DHT22;33900;53.640;9.942;2024-03-23T03:09:43;9.90;92.60
15099;DHT22;33900;53.640;9.942;2024-03-23T03:12:08;9.90;92.60
15099;DHT22;33900;53.640;9.942;2024-03-23T03:14:34;9.90;92.60
15099;DHT22;33900;53.640;9.942;2024-03-23T03:17:00;9.90;92.60
15099;DHT22;33900;53.640;9.942;2024-03-23T03:19:26;9.80;92.60
15099;DHT22;33900;53.640;9.942;2024-03-23T03:21:51;9.80;92.60
15099;DHT22;33900;53.640;9.942;2024-03-23T03:24:17;9.80;92.60
15099;DHT22;33900;53.640;9.942;2024-03-23T03:26:43;9.80;92.60
15099;DHT22;33900;53.640;9.942;2024-03-23T03:29:08;9.80;92.60
15099;DHT22;33900;53.640;9.942;2024-03-23T03:31:34;9.80;92.60
15099;DHT22;33900;53.640;9.942;2024-03-23T03:33:59;9.80;92.60
15099;DHT22;33900;53.640;9.942;2024-03-23T03:36:25;9.80;92.60
15099;DHT22;33900;53.640;9.942;2024-03-23T03:38:51;9.80;92.60
15099;DHT22;33900;53.640;9.942;2024-03-23T03:41:18;9.80;92.60
15099;DHT22;33900;53.640;9.942;2024-03-23T03:43:44;9.80;92.70
15099;DHT22;33900;53.640;9.942;2024-03-23T03:46:09;9.80;92.70
15099;DHT22;33900;53.640;9.942;2024-03-23T03:48:36;9.80;92.70
15099;DHT22;33900;53.640;9.942;2024-03-23T03:51:02;9.80;92.70
15099;DHT22;33900;53.640;9.942;2024-03-23T03:53:27;9.80;92.70
15099;DHT22;33900;53.640;9.942;2024-03-23T03:55:53;9.70;92.70
15099;DHT22;33900;53.640;9.942;2024-03-23T03:58:19;9.70;92.70
15099;DHT22;33900;53.640;9.942;2024-03-23T04:00:44;9.70;92.70
15099;DHT22;33900;53.640;9.942;2024-03-23T04:03:10;9.70;92.70
15099;DHT22;33900;53.640;9.942;2024-03-23T04:05:36;9.70;92.70
15099;DHT22;33900;53.640;9.942;2024-03-23T04:08:01;9.70;92.70
15099;DHT22;33900;53.640;9.942;2024-03-23T04:10:27;9.70;92.70
15099;DHT22;33900;53.640;9.942;2024-03-23T04:12:53;9.70;92.70
15099;DHT22;33900;53.640;9.942;2024-03-23T04:15:19;9.70;92.70
15099;DHT22;33900;53.640;9.942;2024-03-23T04:17:45;9.70;92.70
15099;DHT22;33900;53.640;9.942;2024-03-23T04:20:10;9.70;92.70
15099;DHT22;33900;53.640;9.942;2024-03-23T04:22:37;9.60;92.70
15099;DHT22;33900;53.640;9.942;2024-03-23T04:25:02;9.60;92.70
15099;DHT22;33900;53.640;9.942;2024-03-23T04:27:39;9.60;92.70
15099;DHT22;33900;53.640;9.942;2024-03-23T04:30:05;9.60;92.70
15099;DHT22;33900;53.640;9.942;2024-03-23T04:32:36;9.60;92.70
15099;DHT22;33900;53.640;9.942;2024-03-23T04:35:01;9.60;92.80
15099;DHT22;33900;53.640;9.942;2024-03-23T04:37:28;9.60;92.80
15099;DHT22;33900;53.640;9.942;2024-03-23T04:39:54;9.60;92.80
15099;DHT22;33900;53.640;9.942;2024-03-23T04:42:19;9.60;92.80
15099;DHT22;33900;53.640;9.942;2024-03-23T04:44:45;9.60;92.80
15099;DHT22;33900;53.640;9.942;2024-03-23T04:47:11;9.60;92.80
15099;DHT22;33900;53.640;9.942;2024-03-23T04:49:38;9.60;92.80
15099;DHT22;33900;53.640;9.942;2024-03-23T04:52:06;9.60;92.80
15099;DHT22;33900;53.640;9.942;2024-03-23T04:54:32;9.60;92.80
15099;DHT22;33900;53.640;9.942;2024-03-23T04:56:58;9.50;92.80
15099;DHT22;33900;53.640;9.942;2024-03-23T04:59:26;9.50;92.70
15099;DHT22;33900;53.640;9.942;2024-03-23T05:01:51;9.50;92.70
15099;DHT22;33900;53.640;9.942;2024-03-23T05:04:17;9.50;92.80
15099;DHT22;33900;53.640;9.942;2024-03-23T05:06:43;9.50;92.80
15099;DHT22;33900;53.640;9.942;2024-03-23T05:09:08;9.60;92.80
15099;DHT22;33900;53.640;9.942;2024-03-23T05:11:40;9.50;92.80
15099;DHT22;33900;53.640;9.942;2024-03-23T05:14:07;9.50;92.80
15099;DHT22;33900;53.640;9.942;2024-03-23T05:16:33;9.50;92.80
15099;DHT22;33900;53.640;9.942;2024-03-23T05:18:59;9.50;92.80
15099;DHT22;33900;53.640;9.942;2024-03-23T05:21:24;9.50;92.80
15099;DHT22;33900;53.640;9.942;2024-03-23T05:23:50;9.50;92.80
15099;DHT22;33900;53.640;9.942;2024-03-23T05:26:16;9.50;92.80
15099;DHT22;33900;53.640;9.942;2024-03-23T05:28:42;9.50;92.80
15099;DHT22;33900;53.640;9.942;2024-03-23T05:31:07;9.50;92.80
15099;DHT22;33900;53.640;9.942;2024-03-23T05:33:38;9.50;92.80
15099;DHT22;33900;53.640;9.942;2024-03-23T05:36:04;9.50;92.80
15099;DHT22;33900;53.640;9.942;2024-03-23T05:38:29;9.50;92.80
15099;DHT22;33900;53.640;9.942;2024-03-23T05:40:59;9.50;92.80
15099;DHT22;33900;53.640;9.942;2024-03-23T05:43:25;9.50;92.80
15099;DHT22;33900;53.640;9.942;2024-03-23T05:45:54;9.50;92.80
15099;DHT22;33900;53.640;9.942;2024-03-23T05:48:20;9.50;92.80
15099;DHT22;33900;53.640;9.942;2024-03-23T05:50:47;9.50;92.80
15099;DHT22;33900;53.640;9.942;2024-03-23T05:53:12;9.50;92.80
15099;DHT22;33900;53.640;9.942;2024-03-23T05:55:38;9.50;92.80
15099;DHT22;33900;53.640;9.942;2024-03-23T05:58:04;9.50;92.80
15099;DHT22;33900;53.640;9.942;2024-03-23T06:00:29;9.50;92.80
15099;DHT22;33900;53.640;9.942;2024-03-23T06:02:55;9.50;92.80
15099;DHT22;33900;53.640;9.942;2024-03-23T06:05:20;9.50;92.80
15099;DHT22;33900;53.640;9.942;2024-03-23T06:07:46;9.50;92.80
15099;DHT22;33900;53.640;9.942;2024-03-23T06:10:12;9.50;92.80
15099;DHT22;33900;53.640;9.942;2024-03-23T06:12:37;9.50;92.80
15099;DHT22;33900;53.640;9.942;2024-03-23T06:15:03;9.50;92.80
15099;DHT22;33900;53.640;9.942;2024-03-23T06:17:28;9.60;93.20
15099;DHT22;33900;53.640;9.942;2024-03-23T06:19:54;9.50;92.80
15099;DHT22;33900;53.640;9.942;2024-03-23T06:22:20;9.60;92.90
15099;DHT22;33900;53.640;9.942;2024-03-23T06:24:46;9.60;93.20
15099;DHT22;33900;53.640;9.942;2024-03-23T06:27:11;9.60;92.80
15099;DHT22;33900;53.640;9.942;2024-03-23T06:29:37;9.60;92.80
15099;DHT22;33900;53.640;9.942;2024-03-23T06:32:02;9.60;92.80
15099;DHT22;33900;53.640;9.942;2024-03-23T06:34:29;9.60;92.80
15099;DHT22;33900;53.640;9.942;2024-03-23T06:36:54;9.60;92.80
15099;DHT22;33900;53.640;9.942;2024-03-23T06:39:20;9.60;92.80
15099;DHT22;33900;53.640;9.942;2024-03-23T06:41:51;9.60;92.80
15099;DHT22;33900;53.640;9.942;2024-03-23T06:44:17;9.70;92.80
15099;DHT22;33900;53.640;9.942;2024-03-23T06:46:43;9.70;92.80
15099;DHT22;33900;53.640;9.942;2024-03-23T06:49:08;9.70;92.80
15099;DHT22;33900;53.640;9.942;2024-03-23T06:51:34;9.70;92.80
15099;DHT22;33900;53.640;9.942;2024-03-23T06:53:59;9.70;92.80
15099;DHT22;33900;53.640;9.942;2024-03-23T06:56:25;9.70;92.80
15099;DHT22;33900;53.640;9.942;2024-03-23T06:58:50;9.70;92.70
15099;DHT22;33900;53.640;9.942;2024-03-23T07:01:16;9.70;92.60
15099;DHT22;33900;53.640;9.942;2024-03-23T07:03:42;9.70;92.60
15099;DHT22;33900;53.640;9.942;2024-03-23T07:06:09;9.70;92.60
15099;DHT22;33900;53.640;9.942;2024-03-23T07:08:34;9.80;92.60
15099;DHT22;33900;53.640;9.942;2024-03-23T07:11:00;9.70;92.60
15099;DHT22;33900;53.640;9.942;2024-03-23T07:13:25;9.70;92.60
15099;DHT22;33900;53.640;9.942;2024-03-23T07:15:51;9.70;92.60
15099;DHT22;33900;53.640;9.942;2024-03-23T07:18:17;9.80;92.60
15099;DHT22;33900;53.640;9.942;2024-03-23T07:20:51;9.80;92.60
15099;DHT22;33900;53.640;9.942;2024-03-23T07:23:17;9.80;92.60
15099;DHT22;33900;53.640;9.942;2024-03-23T07:25:42;9.90;92.60
15099;DHT22;33900;53.640;9.942;2024-03-23T07:28:09;9.90;92.60
15099;DHT22;33900;53.640;9.942;2024-03-23T07:30:35;9.90;92.60
15099;DHT22;33900;53.640;9.942;2024-03-23T07:33:01;9.90;92.60
15099;DHT22;33900;53.640;9.942;2024-03-23T07:35:27;10.00;92.40
15099;DHT22;33900;53.640;9.942;2024-03-23T07:37:52;10.00;92.40
15099;DHT22;33900;53.640;9.942;2024-03-23T07:40:18;10.00;92.50
15099;DHT22;33900;53.640;9.942;2024-03-23T07:42:43;10.00;92.50
15099;DHT22;33900;53.640;9.942;2024-03-23T07:45:09;10.10;92.50
15099;DHT22;33900;53.640;9.942;2024-03-23T07:47:34;10.10;92.50
15099;DHT22;33900;53.640;9.942;2024-03-23T07:50:00;10.20;92.60
15099;DHT22;33900;53.640;9.942;2024-03-23T07:52:29;10.30;92.70
15099;DHT22;33900;53.640;9.942;2024-03-23T07:54:54;10.40;92.80
15099;DHT22;33900;53.640;9.942;2024-03-23T07:57:20;10.50;92.90
15099;DHT22;33900;53.640;9.942;2024-03-23T07:59:45;10.60;93.00
15099;DHT22;33900;53.640;9.942;2024-03-23T08:02:11;10.70;93.00
15099;DHT22;33900;53.640;9.942;2024-03-23T08:04:37;10.90;93.00
15099;DHT22;33900;53.640;9.942;2024-03-23T08:07:02;11.00;92.90
15099;DHT22;33900;53.640;9.942;2024-03-23T08:09:28;11.10;92.80
15099;DHT22;33900;53.640;9.942;2024-03-23T08:11:54;11.20;92.40
15099;DHT22;33900;53.640;9.942;2024-03-23T08:14:19;11.40;92.10
15099;DHT22;33900;53.640;9.942;2024-03-23T08:16:45;11.50;92.20
15099;DHT22;33900;53.640;9.942;2024-03-23T08:19:14;11.60;91.90
15099;DHT22;33900;53.640;9.942;2024-03-23T08:21:40;11.70;91.40
15099;DHT22;33900;53.640;9.942;2024-03-23T08:24:05;11.90;91.40
15099;DHT22;33900;53.640;9.942;2024-03-23T08:26:31;11.90;91.30
15099;DHT22;33900;53.640;9.942;2024-03-23T08:28:57;12.00;90.90
15099;DHT22;33900;53.640;9.942;2024-03-23T08:31:22;12.10;91.00
15099;DHT22;33900;53.640;9.942;2024-03-23T08:33:48;12.10;90.90
15099;DHT22;33900;53.640;9.942;2024-03-23T08:36:14;12.20;90.60
15099;DHT22;33900;53.640;9.942;2024-03-23T08:38:40;12.30;90.10
15099;DHT22;33900;53.640;9.942;2024-03-23T08:41:06;12.30;90.00
15099;DHT22;33900;53.640;9.942;2024-03-23T08:43:33;12.50;90.10
15099;DHT22;33900;53.640;9.942;2024-03-23T08:48:31;12.60;88.70
15099;DHT22;33900;53.640;9.942;2024-03-23T08:51:06;12.60;87.20
15099;DHT22;33900;53.640;9.942;2024-03-23T08:53:32;12.60;87.00
15099;DHT22;33900;53.640;9.942;2024-03-23T08:55:58;12.60;86.20
15099;DHT22;33900;53.640;9.942;2024-03-23T08:58:24;12.60;86.70
15099;DHT22;33900;53.640;9.942;2024-03-23T09:00:51;12.70;87.40
15099;DHT22;33900;53.640;9.942;2024-03-23T09:03:16;12.80;86.90
15099;DHT22;33900;53.640;9.942;2024-03-23T09:05:42;12.90;87.00
15099;DHT22;33900;53.640;9.942;2024-03-23T09:08:08;13.10;87.30
15099;DHT22;33900;53.640;9.942;2024-03-23T09:10:40;13.20;85.00
15099;DHT22;33900;53.640;9.942;2024-03-23T09:13:06;13.00;82.20
15099;DHT22;33900;53.640;9.942;2024-03-23T09:15:35;12.80;80.90
15099;DHT22;33900;53.640;9.942;2024-03-23T09:18:02;12.70;82.00
15099;DHT22;33900;53.640;9.942;2024-03-23T09:20:27;12.70;82.30
15099;DHT22;33900;53.640;9.942;2024-03-23T09:22:53;12.60;82.10
15099;DHT22;33900;53.640;9.942;2024-03-23T09:25:19;12.50;82.20
15099;DHT22;33900;53.640;9.942;2024-03-23T09:27:47;12.50;81.80
15099;DHT22;33900;53.640;9.942;2024-03-23T09:30:13;12.70;83.30
15099;DHT22;33900;53.640;9.942;2024-03-23T09:32:43;13.10;83.90
15099;DHT22;33900;53.640;9.942;2024-03-23T09:35:09;13.20;82.20
15099;DHT22;33900;53.640;9.942;2024-03-23T09:37:34;13.30;82.40
15099;DHT22;33900;53.640;9.942;2024-03-23T09:40:00;13.10;81.70
15099;DHT22;33900;53.640;9.942;2024-03-23T09:42:25;13.10;82.30
15099;DHT22;33900;53.640;9.942;2024-03-23T09:44:51;13.10;82.20
15099;DHT22;33900;53.640;9.942;2024-03-23T09:47:17;13.00;81.70
15099;DHT22;33900;53.640;9.942;2024-03-23T09:49:43;12.80;80.30
15099;DHT22;33900;53.640;9.942;2024-03-23T09:52:08;12.70;79.50
15099;DHT22;33900;53.640;9.942;2024-03-23T09:54:34;12.60;79.30
15099;DHT22;33900;53.640;9.942;2024-03-23T09:57:00;12.60;79.90
15099;DHT22;33900;53.640;9.942;2024-03-23T09:59:25;12.50;80.60
15099;DHT22;33900;53.640;9.942;2024-03-23T10:01:52;12.40;81.20
15099;DHT22;33900;53.640;9.942;2024-03-23T10:07:11;12.30;80.10
15099;DHT22;33900;53.640;9.942;2024-03-23T10:09:38;12.50;80.70
15099;DHT22;33900;53.640;9.942;2024-03-23T10:12:10;12.70;81.70
15099;DHT22;33900;53.640;9.942;2024-03-23T10:14:36;13.00;82.20
15099;DHT22;33900;53.640;9.942;2024-03-23T10:17:12;13.50;82.60
15099;DHT22;33900;53.640;9.942;2024-03-23T10:19:44;13.90;82.40
15099;DHT22;33900;53.640;9.942;2024-03-23T10:22:09;14.00;81.20
15099;DHT22;33900;53.640;9.942;2024-03-23T10:24:35;14.10;78.30
15099;DHT22;33900;53.640;9.942;2024-03-23T10:27:01;14.10;76.90
15099;DHT22;33900;53.640;9.942;2024-03-23T10:29:26;14.10;77.40
15099;DHT22;33900;53.640;9.942;2024-03-23T10:31:53;14.10;77.90
15099;DHT22;33900;53.640;9.942;2024-03-23T10:34:27;14.30;77.80
15099;DHT22;33900;53.640;9.942;2024-03-23T10:36:53;14.30;75.10
15099;DHT22;33900;53.640;9.942;2024-03-23T10:39:20;14.10;74.10
15099;DHT22;33900;53.640;9.942;2024-03-23T10:41:48;13.90;73.30
15099;DHT22;33900;53.640;9.942;2024-03-23T10:44:16;13.70;71.00
15099;DHT22;33900;53.640;9.942;2024-03-23T10:46:42;13.50;72.00
15099;DHT22;33900;53.640;9.942;2024-03-23T10:49:07;13.50;73.00
15099;DHT22;33900;53.640;9.942;2024-03-23T10:51:33;13.50;73.30
15099;DHT22;33900;53.640;9.942;2024-03-23T10:53:59;13.50;74.20
15099;DHT22;33900;53.640;9.942;2024-03-23T10:56:26;13.70;74.10
15099;DHT22;33900;53.640;9.942;2024-03-23T10:58:54;13.70;72.70
15099;DHT22;33900;53.640;9.942;2024-03-23T11:01:20;13.70;72.30
15099;DHT22;33900;53.640;9.942;2024-03-23T11:03:46;13.80;72.10
15099;DHT22;33900;53.640;9.942;2024-03-23T11:06:33;13.80;72.10
15099;DHT22;33900;53.640;9.942;2024-03-23T11:08:57;13.80;72.10
15099;DHT22;33900;53.640;9.942;2024-03-23T11:11:23;13.70;70.60
15099;DHT22;33900;53.640;9.942;2024-03-23T11:13:52;13.60;71.00
15099;DHT22;33900;53.640;9.942;2024-03-23T11:16:24;13.40;70.80
15099;DHT22;33900;53.640;9.942;2024-03-23T11:18:51;13.30;71.20
15099;DHT22;33900;53.640;9.942;2024-03-23T11:24:14;13.00;70.80
15099;DHT22;33900;53.640;9.942;2024-03-23T11:26:41;13.00;72.90
15099;DHT22;33900;53.640;9.942;2024-03-23T11:29:10;13.10;74.60
15099;DHT22;33900;53.640;9.942;2024-03-23T11:31:36;13.10;73.80
15099;DHT22;33900;53.640;9.942;2024-03-23T11:34:02;13.10;73.80
15099;DHT22;33900;53.640;9.942;2024-03-23T11:36:29;13.00;74.20
15099;DHT22;33900;53.640;9.942;2024-03-23T11:38:54;13.00;74.70
15099;DHT22;33900;53.640;9.942;2024-03-23T11:41:20;12.90;75.60
15099;DHT22;33900;53.640;9.942;2024-03-23T11:43:45;12.90;76.10
15099;DHT22;33900;53.640;9.942;2024-03-23T11:46:11;13.00;76.30
15099;DHT22;33900;53.640;9.942;2024-03-23T11:48:36;12.90;76.20
15099;DHT22;33900;53.640;9.942;2024-03-23T11:51:02;12.90;76.10
15099;DHT22;33900;53.640;9.942;2024-03-23T11:53:28;12.90;76.10
15099;DHT22;33900;53.640;9.942;2024-03-23T11:55:58;12.80;75.30
15099;DHT22;33900;53.640;9.942;2024-03-23T11:58:25;12.70;75.80
15099;DHT22;33900;53.640;9.942;2024-03-23T12:00:57;12.50;74.60
15099;DHT22;33900;53.640;9.942;2024-03-23T12:03:24;12.30;75.60
15099;DHT22;33900;53.640;9.942;2024-03-23T12:05:54;12.10;76.20
15099;DHT22;33900;53.640;9.942;2024-03-23T12:08:30;11.80;76.90
15099;DHT22;33900;53.640;9.942;2024-03-23T12:11:05;11.70;77.60
15099;DHT22;33900;53.640;9.942;2024-03-23T12:13:31;11.50;77.70
15099;DHT22;33900;53.640;9.942;2024-03-23T12:16:08;11.40;78.20
15099;DHT22;33900;53.640;9.942;2024-03-23T12:18:34;11.30;78.80
15099;DHT22;33900;53.640;9.942;2024-03-23T12:21:00;11.30;79.30
15099;DHT22;33900;53.640;9.942;2024-03-23T12:23:25;11.20;79.50
15099;DHT22;33900;53.640;9.942;2024-03-23T12:25:51;11.30;80.10
15099;DHT22;33900;53.640;9.942;2024-03-23T12:28:16;11.40;81.00
15099;DHT22;33900;53.640;9.942;2024-03-23T12:30:42;11.60;81.70
15099;DHT22;33900;53.640;9.942;2024-03-23T12:33:08;11.90;81.70
15099;DHT22;33900;53.640;9.942;2024-03-23T12:35:33;12.00;81.10
15099;DHT22;33900;53.640;9.942;2024-03-23T12:37:59;12.00;79.70
15099;DHT22;33900;53.640;9.942;2024-03-23T12:40:26;12.00;78.30
15099;DHT22;33900;53.640;9.942;2024-03-23T12:42:54;11.90;78.50
15099;DHT22;33900;53.640;9.942;2024-03-23T12:45:21;11.80;77.60
15099;DHT22;33900;53.640;9.942;2024-03-23T12:47:47;11.70;78.00
15099;DHT22;33900;53.640;9.942;2024-03-23T12:50:12;11.50;78.90
15099;DHT22;33900;53.640;9.942;2024-03-23T12:52:38;11.30;79.20
15099;DHT22;33900;53.640;9.942;2024-03-23T12:55:04;11.20;79.70
15099;DHT22;33900;53.640;9.942;2024-03-23T12:57:31;11.20;80.70
15099;DHT22;33900;53.640;9.942;2024-03-23T12:59:57;11.10;81.20
15099;DHT22;33900;53.640;9.942;2024-03-23T13:02:23;11.00;81.70
15099;DHT22;33900;53.640;9.942;2024-03-23T13:04:52;11.00;81.90
15099;DHT22;33900;53.640;9.942;2024-03-23T13:07:18;11.20;82.50
15099;DHT22;33900;53.640;9.942;2024-03-23T13:09:44;11.30;82.60
15099;DHT22;33900;53.640;9.942;2024-03-23T13:12:10;11.40;83.30
15099;DHT22;33900;53.640;9.942;2024-03-23T13:14:37;11.50;83.10
15099;DHT22;33900;53.640;9.942;2024-03-23T13:17:03;11.50;83.00
15099;DHT22;33900;53.640;9.942;2024-03-23T13:19:29;11.50;82.90
15099;DHT22;33900;53.640;9.942;2024-03-23T13:21:59;11.50;82.80
15099;DHT22;33900;53.640;9.942;2024-03-23T13:24:25;11.50;82.40
15099;DHT22;33900;53.640;9.942;2024-03-23T13:26:52;11.50;82.00
15099;DHT22;33900;53.640;9.942;2024-03-23T13:29:18;11.50;82.00
15099;DHT22;33900;53.640;9.942;2024-03-23T13:31:44;11.50;82.20
15099;DHT22;33900;53.640;9.942;2024-03-23T13:34:10;11.40;82.00
15099;DHT22;33900;53.640;9.942;2024-03-23T13:36:37;11.40;82.00
15099;DHT22;33900;53.640;9.942;2024-03-23T13:39:03;11.40;82.30
15099;DHT22;33900;53.640;9.942;2024-03-23T13:41:39;11.40;82.40
15099;DHT22;33900;53.640;9.942;2024-03-23T13:44:08;11.40;82.10
15099;DHT22;33900;53.640;9.942;2024-03-23T13:46:34;11.30;82.10
15099;DHT22;33900;53.640;9.942;2024-03-23T13:49:00;11.30;82.60
15099;DHT22;33900;53.640;9.942;2024-03-23T13:51:25;11.50;83.20
15099;DHT22;33900;53.640;9.942;2024-03-23T13:53:55;11.60;83.80
15099;DHT22;33900;53.640;9.942;2024-03-23T13:56:27;11.80;84.00
15099;DHT22;33900;53.640;9.942;2024-03-23T13:58:55;11.80;83.60
15099;DHT22;33900;53.640;9.942;2024-03-23T14:01:21;11.90;83.60
15099;DHT22;33900;53.640;9.942;2024-03-23T14:03:46;12.00;83.40
15099;DHT22;33900;53.640;9.942;2024-03-23T14:06:12;12.00;82.80
15099;DHT22;33900;53.640;9.942;2024-03-23T14:08:37;12.10;82.50
15099;DHT22;33900;53.640;9.942;2024-03-23T14:11:07;12.10;82.40
15099;DHT22;33900;53.640;9.942;2024-03-23T14:13:34;12.20;82.60
15099;DHT22;33900;53.640;9.942;2024-03-23T14:16:00;12.30;81.90
15099;DHT22;33900;53.640;9.942;2024-03-23T14:18:25;12.40;81.00
15099;DHT22;33900;53.640;9.942;2024-03-23T14:20:52;12.50;80.50
15099;DHT22;33900;53.640;9.942;2024-03-23T14:23:18;12.60;79.40
15099;DHT22;33900;53.640;9.942;2024-03-23T14:25:44;12.60;77.60
15099;DHT22;33900;53.640;9.942;2024-03-23T14:28:10;12.50;77.20
15099;DHT22;33900;53.640;9.942;2024-03-23T14:30:40;12.60;78.10
15099;DHT22;33900;53.640;9.942;2024-03-23T14:33:06;12.60;75.90
15099;DHT22;33900;53.640;9.942;2024-03-23T14:35:31;12.60;76.30
15099;DHT22;33900;53.640;9.942;2024-03-23T14:37:58;12.50;75.40
15099;DHT22;33900;53.640;9.942;2024-03-23T14:40:24;12.50;75.40
15099;DHT22;33900;53.640;9.942;2024-03-23T14:42:51;12.40;76.20
15099;DHT22;33900;53.640;9.942;2024-03-23T14:45:17;12.30;75.00
15099;DHT22;33900;53.640;9.942;2024-03-23T14:47:43;12.20;75.30
15099;DHT22;33900;53.640;9.942;2024-03-23T14:50:08;12.10;75.10
15099;DHT22;33900;53.640;9.942;2024-03-23T14:52:37;12.00;76.00
15099;DHT22;33900;53.640;9.942;2024-03-23T14:55:02;12.00;76.60
15099;DHT22;33900;53.640;9.942;2024-03-23T14:57:28;11.90;76.90
15099;DHT22;33900;53.640;9.942;2024-03-23T14:59:55;11.80;77.70
15099;DHT22;33900;53.640;9.942;2024-03-23T15:02:20;11.80;78.00
15099;DHT22;33900;53.640;9.942;2024-03-23T15:04:46;11.70;78.40
15099;DHT22;33900;53.640;9.942;2024-03-23T15:07:12;11.60;78.70
15099;DHT22;33900;53.640;9.942;2024-03-23T15:09:37;11.60;79.00
15099;DHT22;33900;53.640;9.942;2024-03-23T15:12:03;11.50;78.90
15099;DHT22;33900;53.640;9.942;2024-03-23T15:14:29;11.50;79.40
15099;DHT22;33900;53.640;9.942;2024-03-23T15:16:54;11.50;79.40
15099;DHT22;33900;53.640;9.942;2024-03-23T15:19:20;11.60;79.50
15099;DHT22;33900;53.640;9.942;2024-03-23T15:21:45;11.70;78.90
15099;DHT22;33900;53.640;9.942;2024-03-23T15:24:12;11.80;79.00
15099;DHT22;33900;53.640;9.942;2024-03-23T15:26:37;11.80;79.10
15099;DHT22;33900;53.640;9.942;2024-03-23T15:29:03;11.90;78.90
15099;DHT22;33900;53.640;9.942;2024-03-23T15:31:36;11.90;79.20
15099;DHT22;33900;53.640;9.942;2024-03-23T15:34:02;12.00;78.80
15099;DHT22;33900;53.640;9.942;2024-03-23T15:36:27;12.00;78.10
15099;DHT22;33900;53.640;9.942;2024-03-23T15:38:53;12.00;78.40
15099;DHT22;33900;53.640;9.942;2024-03-23T15:41:20;12.00;78.70
15099;DHT22;33900;53.640;9.942;2024-03-23T15:43:48;12.00;78.30
15099;DHT22;33900;53.640;9.942;2024-03-23T15:46:14;11.90;77.60
15099;DHT22;33900;53.640;9.942;2024-03-23T15:48:40;11.90;77.80
15099;DHT22;33900;53.640;9.942;2024-03-23T15:51:05;11.80;77.80
15099;DHT22;33900;53.640;9.942;2024-03-23T15:53:31;11.80;77.80
15099;DHT22;33900;53.640;9.942;2024-03-23T15:55:58;11.70;78.10
15099;DHT22;33900;53.640;9.942;2024-03-23T15:58:24;11.60;78.40
15099;DHT22;33900;53.640;9.942;2024-03-23T16:03:22;11.60;79.90
15099;DHT22;33900;53.640;9.942;2024-03-23T16:05:54;11.50;80.10
15099;DHT22;33900;53.640;9.942;2024-03-23T16:08:21;11.50;81.10
15099;DHT22;33900;53.640;9.942;2024-03-23T16:10:47;11.40;80.80
15099;DHT22;33900;53.640;9.942;2024-03-23T16:13:12;11.30;81.10
15099;DHT22;33900;53.640;9.942;2024-03-23T16:15:38;11.30;81.50
15099;DHT22;33900;53.640;9.942;2024-03-23T16:18:03;11.20;81.60
15099;DHT22;33900;53.640;9.942;2024-03-23T16:20:29;11.20;81.70
15099;DHT22;33900;53.640;9.942;2024-03-23T16:22:56;11.20;81.80
15099;DHT22;33900;53.640;9.942;2024-03-23T16:25:21;11.10;81.80
15099;DHT22;33900;53.640;9.942;2024-03-23T16:27:47;11.00;81.20
15099;DHT22;33900;53.640;9.942;2024-03-23T16:30:13;10.80;81.50
15099;DHT22;33900;53.640;9.942;2024-03-23T16:32:39;10.70;82.00
15099;DHT22;33900;53.640;9.942;2024-03-23T16:35:06;10.60;82.40